Illiopolis, IL (62539)

10:32 AM CST on December 20, 2014 (GMT -0600)
South Weather Station | Change Station
CLOSE
Current Station
Personal Weather Station
Location: Mechanicsburg, IL
Elevation: 587 ft
Nearby Weather Stations

Elev 587 ft 39.80 °N, 89.40 °W | Updated 8 seconds ago

Overcast
Overcast
34.1 °F
Feels Like 26 °F
N
11.0
Wind Variable Wind from SSE
Gusts 11.0 mph

Today
High -- | Low -- °F
--% Chance of Precip.
Yesterday
High -- | Low -- °F
Precip. -- in
7:14 AM 4:34 PM
Waning Crescent, 2% visible
Pressure 30.32 in
Visibility 8.0 miles
Clouds Overcast 6000 ft
Windchill 26 °F
Dew Point 30 °F
Humidity 84%
Rainfall 0.00 in
Snow Depth Not available.
UV 0 out of 12
Pollen .10 out of 12
Air Quality Not available.
Flu Activity Not available.
METAR KDEC 201554Z 14005KT 8SM OVC060 00/M02 A3030 RMK AO2 SLP268 T00001022

More Conditions Fewer Conditions

Pressure 30.32 in
Visibility 8.0 miles
Clouds Overcast 6000 ft
Windchill 26 °F
Dew Point 30 °F
Humidity 84%
Rainfall 0.00 in
Snow Depth Not available.
UV 0 out of 12
Pollen .10 out of 12
Air Quality Not available.
Flu Activity Not available.
METAR KDEC 201554Z 14005KT 8SM OVC060 00/M02 A3030 RMK AO2 SLP268 T00001022

More Conditions Fewer Conditions

10-Day Weather Forecast

Almanac

Astronomy

Dec. 20, 2014 Rise Set
Actual Time
Civil Twilight
Nautical Twilight
Astronomical Twilight
Moon
Length of Visible Light
Length of Day
Tomorrow will be .
, % of the Moon is Illuminated

Today's Extremes

State Highs State Lows

Community

WunderPhotos

Upload Photos

1,779,215 photos uploaded!

WunderBlogs® & News

Nearby

Air Quality

  Air Quality AQ Index Pollutant
Not available.

Snow Depth

Station Depth Elevation

Earthquake Activity

City Distance Mag. Time & Date
Minimum magnitude displayed is 2.5.

Coastal Water Temperatures

Place Temperature

Nearby Weather Stations